| time (UTC) | temp F | wind direction | speed MPH | gust MPH | rain 1hr in | rain 24hr in | rain mn in | humidity % | barometer mb |
| 20260510153012 | 53 | 74 | 1.0 | 2.0 | 0.00 | 0.00 | 0.00 | 70 | 1016.7 |
| 20260510151520 | 53 | 171 | 0.0 | 2.0 | 0.00 | 0.00 | 0.00 | 71 | 1017.1 |
| 20260510150006 | 52 | 171 | 0.0 | 2.0 | 0.00 | 0.00 | 0.00 | 75 | 1017.0 |
| 20260510144503 | 51 | 163 | 0.0 | 1.0 | 0.00 | 0.00 | 0.00 | 81 | 1017.4 |
| 20260510143008 | 49 | 163 | 0.0 | 1.0 | 0.00 | 0.00 | 0.00 | 81 | 1017.1 |
| 20260510141506 | 49 | 163 | 0.0 | 0.0 | 0.00 | 0.00 | 0.00 | 81 | 1016.9 |
| 20260510140001 | 48 | 167 | 0.0 | 1.0 | 0.00 | 0.00 | 0.00 | 81 | 1016.9 |
| 20260510134502 | 47 | 167 | 0.0 | 0.0 | 0.00 | 0.00 | 0.00 | 81 | 1016.6 |
| 20260510133106 | 47 | 167 | 0.0 | 0.0 | 0.00 | 0.00 | 0.00 | 80 | 1016.9 |
| 20260510131601 | 46 | 167 | 0.0 | 0.0 | 0.00 | 0.00 | 0.00 | 79 | 1016.7 |
| 20260510130058 | 46 | 167 | 0.0 | 0.0 | 0.00 | 0.00 | 0.00 | 78 | 1016.9 |
| 20260510124601 | 46 | 167 | 0.0 | 0.0 | 0.00 | 0.00 | 0.00 | 77 | 1017.0 |
| 20260510123056 | 46 | 167 | 0.0 | 0.0 | 0.00 | 0.00 | 0.00 | 76 | 1016.7 |
| 20260510121557 | 46 | 167 | 0.0 | 0.0 | 0.00 | 0.00 | 0.00 | 75 | 1016.7 |
| 20260510120052 | 46 | 167 | 0.0 | 0.0 | 0.00 | 0.00 | 0.00 | 72 | 1016.7 |
| 20260510114607 | 46 | 167 | 0.0 | 0.0 | 0.00 | 0.00 | 0.00 | 71 | 1016.7 |
| 20260510113056 | 46 | 167 | 0.0 | 0.0 | 0.00 | 0.00 | 0.00 | 70 | 1016.5 |
| 20260510111546 | 46 | 167 | 0.0 | 0.0 | 0.00 | 0.00 | 0.00 | 70 | 1016.6 |
| 20260510110043 | 47 | 167 | 0.0 | 0.0 | 0.00 | 0.00 | 0.00 | 69 | 1016.4 |
| 20260510104551 | 47 | 167 | 0.0 | 0.0 | 0.00 | 0.00 | 0.00 | 69 | 1016.4 |
| 20260510103040 | 47 | 167 | 0.0 | 0.0 | 0.00 | 0.00 | 0.00 | 68 | 1016.2 |
| 20260510101537 | 48 | 167 | 0.0 | 0.0 | 0.00 | 0.00 | 0.00 | 68 | 1016.0 |
| 20260510100052 | 49 | 167 | 0.0 | 0.0 | 0.00 | 0.00 | 0.00 | 67 | 1016.1 |
| 20260510094537 | 49 | 167 | 0.0 | 0.0 | 0.00 | 0.00 | 0.00 | 67 | 1016.2 |
| 20260510093031 | 50 | 167 | 0.0 | 1.0 | 0.00 | 0.00 | 0.00 | 67 | 1016.1 |
| 20260510091528 | 50 | 163 | 0.0 | 2.0 | 0.00 | 0.00 | 0.00 | 67 | 1016.0 |
| 20260510090028 | 50 | 126 | 0.0 | 2.0 | 0.00 | 0.00 | 0.00 | 67 | 1015.8 |
| 20260510084527 | 51 | 32 | 0.0 | 2.0 | 0.00 | 0.00 | 0.00 | 67 | 1015.7 |
| 20260510083024 | 51 | 113 | 0.0 | 2.0 | 0.00 | 0.00 | 0.00 | 66 | 1015.7 |
| 20260510081623 | 52 | 115 | 0.0 | 2.0 | 0.00 | 0.00 | 0.00 | 67 | 1015.7 |
| 20260510080021 | 52 | 128 | 0.0 | 2.0 | 0.00 | 0.00 | 0.00 | 66 | 1015.5 |
| 20260510074523 | 52 | 70 | 0.0 | 2.0 | 0.00 | 0.00 | 0.00 | 66 | 1015.5 |
| 20260510073017 | 52 | 105 | 0.0 | 1.0 | 0.00 | 0.00 | 0.00 | 66 | 1015.6 |
| 20260510071514 | 52 | 105 | 0.0 | 2.0 | 0.00 | 0.00 | 0.00 | 66 | 1015.5 |
| 20260510070010 | 52 | 355 | 0.0 | 1.0 | 0.00 | 0.00 | 0.00 | 66 | 1015.6 |
| 20260510064508 | 52 | 355 | 0.0 | 1.0 | 0.00 | 0.00 | 0.00 | 66 | 1015.5 |
| 20260510063010 | 52 | 355 | 0.0 | 1.0 | 0.00 | 0.00 | 0.00 | 66 | 1015.5 |
| 20260510061507 | 53 | 355 | 0.0 | 1.0 | 0.00 | 0.00 | 0.00 | 65 | 1015.6 |
| 20260510060007 | 53 | 355 | 0.0 | 0.0 | 0.00 | 0.00 | 0.00 | 63 | 1015.7 |
| 20260510054507 | 54 | 355 | 0.0 | 0.0 | 0.00 | 0.00 | 0.00 | 62 | 1015.7 |
| 20260510053106 | 54 | 355 | 0.0 | 0.0 | 0.00 | 0.00 | 0.00 | 61 | 1015.6 |
| 20260510051505 | 55 | 355 | 0.0 | 0.0 | 0.00 | 0.00 | 0.00 | 60 | 1015.7 |
| 20260510050005 | 55 | 355 | 0.0 | 1.0 | 0.00 | 0.00 | 0.00 | 60 | 1015.6 |
| 20260510044508 | 55 | 355 | 0.0 | 1.0 | 0.00 | 0.00 | 0.00 | 59 | 1015.6 |
| 20260510043008 | 56 | 355 | 0.0 | 1.0 | 0.00 | 0.00 | 0.00 | 57 | 1015.6 |
| 20260510041503 | 57 | 355 | 0.0 | 1.0 | 0.00 | 0.00 | 0.00 | 56 | 1015.6 |
| 20260510040002 | 58 | 355 | 0.0 | 1.0 | 0.00 | 0.00 | 0.00 | 55 | 1015.4 |
| 20260510034502 | 59 | 355 | 0.0 | 0.0 | 0.00 | 0.00 | 0.00 | 53 | 1015.5 |
| 20260510033001 | 60 | 355 | 0.0 | 1.0 | 0.00 | 0.00 | 0.00 | 52 | 1015.5 |
| 20260510031629 | 61 | 355 | 0.0 | 0.0 | 0.00 | 0.00 | 0.00 | 50 | 1015.3 |
| 20260510024559 | 62 | 355 | 0.0 | 1.0 | 0.00 | 0.00 | 0.00 | 50 | 1015.7 |
| 20260510023059 | 62 | 355 | 0.0 | 2.0 | 0.00 | 0.00 | 0.00 | 48 | 1015.7 |
| 20260510021556 | 63 | 355 | 0.0 | 4.0 | 0.00 | 0.00 | 0.00 | 48 | 1015.8 |
| 20260510020054 | 63 | 338 | 0.0 | 3.0 | 0.00 | 0.00 | 0.00 | 49 | 1016.0 |
| 20260510014605 | 63 | 324 | 1.0 | 3.0 | 0.00 | 0.00 | 0.00 | 48 | 1016.4 |
| 20260510013050 | 64 | 107 | 1.0 | 5.0 | 0.00 | 0.00 | 0.00 | 48 | 1016.5 |
| 20260510011552 | 64 | 360 | 0.0 | 5.0 | 0.00 | 0.00 | 0.00 | 47 | 1016.7 |
| 20260510010059 | 64 | 281 | 3.0 | 7.0 | 0.00 | 0.00 | 0.00 | 47 | 1017.0 |
| 20260510004554 | 64 | 288 | 0.0 | 5.0 | 0.00 | 0.00 | 0.00 | 48 | 1017.0 |
| 20260510003057 | 65 | 246 | 0.0 | 3.0 | 0.00 | 0.00 | 0.00 | 47 | 1017.0 |
| 20260510001547 | 64 | 80 | 0.0 | 5.0 | 0.00 | 0.00 | 0.00 | 47 | 1017.2 |
| 20260510000051 | 65 | 350 | 1.0 | 6.0 | 0.00 | 0.00 | 0.00 | 49 | 1017.4 |
| 20260509234558 | 65 | 40 | 1.0 | 8.0 | 0.00 | 0.00 | 0.00 | 47 | 1017.5 |
| 20260509233042 | 66 | 67 | 2.0 | 8.0 | 0.00 | 0.00 | 0.00 | 47 | 1017.6 |
| 20260509231540 | 66 | 21 | 1.0 | 6.0 | 0.00 | 0.00 | 0.00 | 46 | 1017.7 |
| 20260509230039 | 67 | 40 | 2.0 | 9.0 | 0.00 | 0.00 | 0.00 | 45 | 1017.7 |
| 20260509224539 | 68 | 84 | 2.0 | 7.0 | 0.00 | 0.00 | 0.00 | 43 | 1017.8 |
| 20260509223040 | 69 | 355 | 2.0 | 5.0 | 0.00 | 0.00 | 0.00 | 42 | 1018.1 |
| 20260509221535 | 69 | 58 | 1.0 | 5.0 | 0.00 | 0.00 | 0.00 | 42 | 1018.4 |
| 20260509220034 | 69 | 285 | 0.0 | 5.0 | 0.00 | 0.00 | 0.00 | 44 | 1018.4 |
| 20260509214537 | 69 | 42 | 0.0 | 3.0 | 0.00 | 0.00 | 0.00 | 47 | 1018.4 |
| 20260509213028 | 68 | 253 | 1.0 | 5.0 | 0.00 | 0.00 | 0.00 | 48 | 1018.5 |
| 20260509211528 | 68 | 40 | 2.0 | 6.0 | 0.00 | 0.00 | 0.00 | 47 | 1018.7 |
| 20260509210026 | 68 | 280 | 3.0 | 8.0 | 0.00 | 0.00 | 0.00 | 46 | 1018.9 |
| 20260509204529 | 67 | 221 | 0.0 | 3.0 | 0.00 | 0.00 | 0.00 | 49 | 1018.8 |
| 20260509203020 | 66 | 238 | 1.0 | 5.0 | 0.00 | 0.00 | 0.00 | 46 | 1019.1 |
| 20260509201520 | 66 | 236 | 1.0 | 5.0 | 0.00 | 0.00 | 0.00 | 45 | 1019.1 |
| 20260509200018 | 66 | 208 | 3.0 | 5.0 | 0.00 | 0.00 | 0.00 | 46 | 1019.3 |
| 20260509194516 | 66 | 196 | 3.0 | 6.0 | 0.00 | 0.00 | 0.00 | 47 | 1019.4 |
| 20260509193013 | 65 | 250 | 3.0 | 7.0 | 0.00 | 0.00 | 0.00 | 53 | 1019.8 |
| 20260509191511 | 65 | 199 | 2.0 | 5.0 | 0.00 | 0.00 | 0.00 | 52 | 1020.1 |
| 20260509190008 | 64 | 219 | 2.0 | 7.0 | 0.00 | 0.00 | 0.00 | 54 | 1020.4 |
| 20260509184504 | 64 | 346 | 1.0 | 8.0 | 0.00 | 0.00 | 0.00 | 58 | 1020.4 |
| 20260509183002 | 63 | 199 | 2.0 | 7.0 | 0.00 | 0.00 | 0.00 | 59 | 1020.6 |
| 20260509181605 | 62 | 167 | 2.0 | 7.0 | 0.00 | 0.00 | 0.00 | 61 | 1020.7 |
| 20260509180100 | 61 | 189 | 2.0 | 7.0 | 0.00 | 0.00 | 0.00 | 62 | 1020.6 |
| 20260509174603 | 60 | 212 | 2.0 | 6.0 | 0.00 | 0.00 | 0.00 | 63 | 1020.7 |
| 20260509173104 | 59 | 244 | 2.0 | 7.0 | 0.00 | 0.00 | 0.00 | 64 | 1020.9 |
| 20260509171553 | 59 | 215 | 2.0 | 7.0 | 0.00 | 0.00 | 0.00 | 65 | 1021.0 |
| 20260509170047 | 59 | 248 | 2.0 | 5.0 | 0.00 | 0.00 | 0.00 | 67 | 1021.0 |
| 20260509164545 | 57 | 250 | 2.0 | 6.0 | 0.00 | 0.00 | 0.00 | 71 | 1021.1 |
| 20260509163039 | 56 | 200 | 2.0 | 5.0 | 0.00 | 0.00 | 0.00 | 73 | 1021.2 |
| 20260509161535 | 55 | 212 | 2.0 | 4.0 | 0.00 | 0.00 | 0.00 | 74 | 1021.3 |
| 20260509160032 | 53 | 230 | 0.0 | 2.0 | 0.00 | 0.00 | 0.00 | 76 | 1021.4 |
| 20260509154533 | 52 | 238 | 1.0 | 3.0 | 0.00 | 0.00 | 0.00 | 77 | 1021.6 |